sensor_id;sensor_type;location;lat;lon;timestamp;pressure;altitude;pressure_sealevel;temperature;humidity
25638;BME280;13496;51.040;13.680;2024-01-27T00:04:05;100920.09;;;17.01;49.12
25638;BME280;13496;51.040;13.680;2024-01-27T00:09:07;100921.38;;;16.97;49.41
25638;BME280;13496;51.040;13.680;2024-01-27T00:14:09;100924.00;;;16.97;49.08
25638;BME280;13496;51.040;13.680;2024-01-27T00:19:10;100924.00;;;16.97;49.36
25638;BME280;13496;51.040;13.680;2024-01-27T00:24:13;100922.19;;;16.97;49.26
25638;BME280;13496;51.040;13.680;2024-01-27T00:29:15;100931.19;;;16.95;49.16
25638;BME280;13496;51.040;13.680;2024-01-27T00:34:17;100936.84;;;16.90;49.32
25638;BME280;13496;51.040;13.680;2024-01-27T00:39:19;100953.28;;;16.92;49.44
25638;BME280;13496;51.040;13.680;2024-01-27T00:44:21;100964.59;;;16.92;49.11
25638;BME280;13496;51.040;13.680;2024-01-27T00:49:23;100957.00;;;16.89;49.33
25638;BME280;13496;51.040;13.680;2024-01-27T00:54:25;100975.66;;;16.86;48.85
25638;BME280;13496;51.040;13.680;2024-01-27T00:59:27;100975.66;;;16.86;49.39
25638;BME280;13496;51.040;13.680;2024-01-27T01:04:29;100984.34;;;16.87;49.04
25638;BME280;13496;51.040;13.680;2024-01-27T01:09:30;100992.06;;;16.88;49.22
25638;BME280;13496;51.040;13.680;2024-01-27T01:14:32;101003.53;;;16.87;49.03
25638;BME280;13496;51.040;13.680;2024-01-27T01:19:35;101001.84;;;16.86;49.19
25638;BME280;13496;51.040;13.680;2024-01-27T01:24:37;101004.63;;;16.85;49.31
25638;BME280;13496;51.040;13.680;2024-01-27T01:29:39;101001.19;;;16.84;49.05
25638;BME280;13496;51.040;13.680;2024-01-27T01:34:41;101002.31;;;16.82;49.16
25638;BME280;13496;51.040;13.680;2024-01-27T01:39:43;101004.09;;;16.81;48.98
25638;BME280;13496;51.040;13.680;2024-01-27T01:44:44;101020.00;;;16.80;49.09
25638;BME280;13496;51.040;13.680;2024-01-27T01:49:46;101019.00;;;16.81;48.96
25638;BME280;13496;51.040;13.680;2024-01-27T01:54:49;101020.81;;;16.80;49.03
25638;BME280;13496;51.040;13.680;2024-01-27T01:59:51;101020.00;;;16.80;49.11
25638;BME280;13496;51.040;13.680;2024-01-27T02:04:53;101027.84;;;16.80;49.09
25638;BME280;13496;51.040;13.680;2024-01-27T02:09:55;101034.19;;;16.77;49.35
25638;BME280;13496;51.040;13.680;2024-01-27T02:14:57;101035.72;;;16.80;49.14
25638;BME280;13496;51.040;13.680;2024-01-27T02:19:58;101042.06;;;16.77;49.32
25638;BME280;13496;51.040;13.680;2024-01-27T02:25:02;101036.13;;;16.75;49.14
25638;BME280;13496;51.040;13.680;2024-01-27T02:30:05;101036.13;;;16.75;49.19
25638;BME280;13496;51.040;13.680;2024-01-27T02:35:07;101036.13;;;16.75;49.29
25638;BME280;13496;51.040;13.680;2024-01-27T02:40:10;101025.63;;;16.75;48.99
25638;BME280;13496;51.040;13.680;2024-01-27T02:45:12;101036.13;;;16.75;49.04
25638;BME280;13496;51.040;13.680;2024-01-27T02:50:13;101046.03;;;16.72;49.01
25638;BME280;13496;51.040;13.680;2024-01-27T02:55:15;101040.94;;;16.70;49.22
25638;BME280;13496;51.040;13.680;2024-01-27T03:00:17;101048.81;;;16.70;49.04
25638;BME280;13496;51.040;13.680;2024-01-27T03:05:19;101052.69;;;16.66;48.97
25638;BME280;13496;51.040;13.680;2024-01-27T03:10:21;101058.59;;;16.68;48.92
25638;BME280;13496;51.040;13.680;2024-01-27T03:15:23;101074.63;;;16.65;48.96
25638;BME280;13496;51.040;13.680;2024-01-27T03:20:25;101084.97;;;16.66;49.04
25638;BME280;13496;51.040;13.680;2024-01-27T03:25:26;101090.34;;;16.65;49.03
25638;BME280;13496;51.040;13.680;2024-01-27T03:30:28;101098.34;;;16.63;49.11
25638;BME280;13496;51.040;13.680;2024-01-27T03:35:30;101101.78;;;16.64;49.13
25638;BME280;13496;51.040;13.680;2024-01-27T03:40:32;101099.31;;;16.62;49.08
25638;BME280;13496;51.040;13.680;2024-01-27T03:45:33;101101.13;;;16.62;49.01
25638;BME280;13496;51.040;13.680;2024-01-27T03:50:35;101111.72;;;16.60;48.90
25638;BME280;13496;51.040;13.680;2024-01-27T03:55:37;101124.00;;;16.60;48.92
25638;BME280;13496;51.040;13.680;2024-01-27T04:00:39;101113.78;;;16.57;49.00
25638;BME280;13496;51.040;13.680;2024-01-27T04:05:40;101118.09;;;16.58;48.71
25638;BME280;13496;51.040;13.680;2024-01-27T04:10:42;101115.59;;;16.56;48.76
25638;BME280;13496;51.040;13.680;2024-01-27T04:15:44;101135.03;;;16.54;48.88
25638;BME280;13496;51.040;13.680;2024-01-27T04:20:46;101135.03;;;16.54;48.88
25638;BME280;13496;51.040;13.680;2024-01-27T04:25:47;101140.16;;;16.55;48.89
25638;BME280;13496;51.040;13.680;2024-01-27T04:30:49;101147.03;;;16.56;48.87
25638;BME280;13496;51.040;13.680;2024-01-27T04:35:51;101144.56;;;16.55;48.94
25638;BME280;13496;51.040;13.680;2024-01-27T04:40:53;101140.97;;;16.56;48.97
25638;BME280;13496;51.040;13.680;2024-01-27T04:45:55;101156.00;;;16.54;48.72
25638;BME280;13496;51.040;13.680;2024-01-27T04:50:57;101156.97;;;16.53;48.96
25638;BME280;13496;51.040;13.680;2024-01-27T04:55:58;101153.38;;;16.54;48.92
25638;BME280;13496;51.040;13.680;2024-01-27T05:01:01;101160.72;;;16.50;49.01
25638;BME280;13496;51.040;13.680;2024-01-27T05:06:03;101153.69;;;16.51;48.85
25638;BME280;13496;51.040;13.680;2024-01-27T05:11:09;101153.69;;;16.51;48.98
25638;BME280;13496;51.040;13.680;2024-01-27T05:16:11;101165.25;;;16.48;48.84
25638;BME280;13496;51.040;13.680;2024-01-27T05:21:13;101179.88;;;16.51;48.88
25638;BME280;13496;51.040;13.680;2024-01-27T05:26:14;101178.34;;;16.48;48.82
25638;BME280;13496;51.040;13.680;2024-01-27T05:31:16;101184.56;;;16.47;48.85
25638;BME280;13496;51.040;13.680;2024-01-27T05:36:18;101180.97;;;16.48;48.84
25638;BME280;13496;51.040;13.680;2024-01-27T05:41:20;101191.72;;;16.45;48.94
25638;BME280;13496;51.040;13.680;2024-01-27T05:46:21;101194.50;;;16.43;48.98
25638;BME280;13496;51.040;13.680;2024-01-27T05:51:23;101198.91;;;16.43;48.81
25638;BME280;13496;51.040;13.680;2024-01-27T05:56:25;101212.00;;;16.43;48.75
25638;BME280;13496;51.040;13.680;2024-01-27T06:01:27;101211.31;;;16.41;48.77
25638;BME280;13496;51.040;13.680;2024-01-27T06:06:28;101216.28;;;16.44;48.85
25638;BME280;13496;51.040;13.680;2024-01-27T06:11:30;101219.97;;;16.41;48.74
25638;BME280;13496;51.040;13.680;2024-01-27T06:16:32;101229.63;;;16.41;48.87
25638;BME280;13496;51.040;13.680;2024-01-27T06:21:34;101223.72;;;16.39;48.76
25638;BME280;13496;51.040;13.680;2024-01-27T06:26:36;101225.63;;;16.37;48.97
25638;BME280;13496;51.040;13.680;2024-01-27T06:31:39;101232.53;;;16.38;48.65
25638;BME280;13496;51.040;13.680;2024-01-27T06:36:40;101231.03;;;16.35;48.84
25638;BME280;13496;51.040;13.680;2024-01-27T06:41:42;101243.16;;;16.36;48.77
25638;BME280;13496;51.040;13.680;2024-01-27T06:46:44;101259.53;;;16.38;48.83
25638;BME280;13496;51.040;13.680;2024-01-27T06:51:48;101269.34;;;16.36;48.92
25638;BME280;13496;51.040;13.680;2024-01-27T06:56:49;101271.97;;;16.36;48.73
25638;BME280;13496;51.040;13.680;2024-01-27T07:01:51;101273.63;;;16.37;48.72
25638;BME280;13496;51.040;13.680;2024-01-27T07:06:53;101280.78;;;16.35;48.79
25638;BME280;13496;51.040;13.680;2024-01-27T07:11:55;101303.41;;;16.36;48.73
25638;BME280;13496;51.040;13.680;2024-01-27T07:16:57;101307.00;;;16.35;48.80
25638;BME280;13496;51.040;13.680;2024-01-27T07:21:58;101314.69;;;16.37;48.57
25638;BME280;13496;51.040;13.680;2024-01-27T07:27:01;101320.09;;;16.35;48.63
25638;BME280;13496;51.040;13.680;2024-01-27T07:32:03;101319.13;;;16.36;48.72
25638;BME280;13496;51.040;13.680;2024-01-27T07:37:05;101316.59;;;16.35;48.59
25638;BME280;13496;51.040;13.680;2024-01-27T07:42:07;101324.34;;;16.36;48.49
25638;BME280;13496;51.040;13.680;2024-01-27T07:47:09;101326.72;;;16.39;48.31
25638;BME280;13496;51.040;13.680;2024-01-27T07:52:10;101317.47;;;16.45;48.23
25638;BME280;13496;51.040;13.680;2024-01-27T07:57:12;101330.59;;;16.55;48.31
25638;BME280;13496;51.040;13.680;2024-01-27T08:02:14;101329.88;;;16.53;47.37
25638;BME280;13496;51.040;13.680;2024-01-27T08:07:17;101344.78;;;16.52;47.52
25638;BME280;13496;51.040;13.680;2024-01-27T08:12:21;101345.50;;;16.54;47.85
25638;BME280;13496;51.040;13.680;2024-01-27T08:17:23;101336.78;;;16.54;48.07
25638;BME280;13496;51.040;13.680;2024-01-27T08:22:25;101336.78;;;16.54;47.75
25638;BME280;13496;51.040;13.680;2024-01-27T08:27:27;101338.56;;;16.53;47.86
25638;BME280;13496;51.040;13.680;2024-01-27T08:32:29;101347.13;;;16.55;47.97
25638;BME280;13496;51.040;13.680;2024-01-27T08:37:31;101354.84;;;16.57;48.11
25638;BME280;13496;51.040;13.680;2024-01-27T08:42:39;101353.59;;;16.61;47.95
25638;BME280;13496;51.040;13.680;2024-01-27T08:47:41;101363.53;;;16.57;47.86
25638;BME280;13496;51.040;13.680;2024-01-27T08:52:43;101380.09;;;16.58;47.97
25638;BME280;13496;51.040;13.680;2024-01-27T08:57:48;101380.22;;;16.56;47.42
25638;BME280;13496;51.040;13.680;2024-01-27T09:02:51;101396.66;;;16.58;47.73
25638;BME280;13496;51.040;13.680;2024-01-27T09:07:53;101403.41;;;16.61;47.04
25638;BME280;13496;51.040;13.680;2024-01-27T09:12:55;101406.47;;;16.66;47.00
25638;BME280;13496;51.040;13.680;2024-01-27T09:17:57;101408.63;;;16.61;46.79
25638;BME280;13496;51.040;13.680;2024-01-27T09:22:59;101414.06;;;16.69;47.37
25638;BME280;13496;51.040;13.680;2024-01-27T09:28:00;101421.41;;;16.75;47.12
25638;BME280;13496;51.040;13.680;2024-01-27T09:33:03;101424.72;;;16.77;46.86
25638;BME280;13496;51.040;13.680;2024-01-27T09:38:05;101428.16;;;16.78;47.07
25638;BME280;13496;51.040;13.680;2024-01-27T09:43:12;101423.50;;;16.81;47.23
25638;BME280;13496;51.040;13.680;2024-01-27T09:48:14;101422.09;;;16.87;46.88
25638;BME280;13496;51.040;13.680;2024-01-27T09:53:16;101424.72;;;16.77;46.20
25638;BME280;13496;51.040;13.680;2024-01-27T09:58:18;101428.03;;;16.79;46.19
25638;BME280;13496;51.040;13.680;2024-01-27T10:03:20;101424.47;;;16.80;45.91
25638;BME280;13496;51.040;13.680;2024-01-27T10:08:22;101428.94;;;16.68;45.15
25638;BME280;13496;51.040;13.680;2024-01-27T10:13:24;101425.50;;;16.68;45.22
25638;BME280;13496;51.040;13.680;2024-01-27T10:18:30;101423.91;;;16.77;45.22
25638;BME280;13496;51.040;13.680;2024-01-27T10:23:32;101422.53;;;16.82;45.41
25638;BME280;13496;51.040;13.680;2024-01-27T10:28:40;101425.56;;;16.78;44.61
25638;BME280;13496;51.040;13.680;2024-01-27T10:34:01;101430.53;;;16.90;44.53
25638;BME280;13496;51.040;13.680;2024-01-27T10:39:17;101435.53;;;17.03;46.06
25638;BME280;13496;51.040;13.680;2024-01-27T10:44:20;101424.06;;;16.95;44.42
25638;BME280;13496;51.040;13.680;2024-01-27T10:49:23;101441.47;;;16.96;43.66
25638;BME280;13496;51.040;13.680;2024-01-27T10:54:26;101443.13;;;17.06;43.89
25638;BME280;13496;51.040;13.680;2024-01-27T10:59:30;101443.38;;;16.93;45.22
25638;BME280;13496;51.040;13.680;2024-01-27T11:04:33;101435.69;;;17.40;45.34
25638;BME280;13496;51.040;13.680;2024-01-27T11:09:37;101451.69;;;17.28;44.79
25638;BME280;13496;51.040;13.680;2024-01-27T11:14:40;101433.91;;;19.36;42.16
25638;BME280;13496;51.040;13.680;2024-01-27T11:19:42;101436.81;;;18.79;42.56
25638;BME280;13496;51.040;13.680;2024-01-27T11:24:44;101443.94;;;17.46;43.85
25638;BME280;13496;51.040;13.680;2024-01-27T11:29:49;101454.75;;;17.33;42.68
25638;BME280;13496;51.040;13.680;2024-01-27T11:34:50;101461.34;;;17.08;42.87
25638;BME280;13496;51.040;13.680;2024-01-27T11:40:03;101457.06;;;17.07;43.12
25638;BME280;13496;51.040;13.680;2024-01-27T11:45:06;101450.81;;;16.98;43.49
25638;BME280;13496;51.040;13.680;2024-01-27T11:50:09;101445.31;;;16.91;44.03
25638;BME280;13496;51.040;13.680;2024-01-27T11:55:11;101449.84;;;16.89;43.21
25638;BME280;13496;51.040;13.680;2024-01-27T12:00:13;101454.94;;;16.81;43.49
25638;BME280;13496;51.040;13.680;2024-01-27T12:05:14;101450.69;;;16.90;44.10
25638;BME280;13496;51.040;13.680;2024-01-27T12:10:17;101461.72;;;16.93;43.89
25638;BME280;13496;51.040;13.680;2024-01-27T12:15:19;101453.59;;;16.97;44.04
25638;BME280;13496;51.040;13.680;2024-01-27T12:20:22;101456.91;;;16.89;43.42
25638;BME280;13496;51.040;13.680;2024-01-27T12:25:24;101460.94;;;16.72;43.04
25638;BME280;13496;51.040;13.680;2024-01-27T12:30:26;101469.59;;;16.93;45.36
25638;BME280;13496;51.040;13.680;2024-01-27T12:35:28;101469.91;;;17.10;44.82
25638;BME280;13496;51.040;13.680;2024-01-27T12:40:31;101472.34;;;16.92;43.59
25638;BME280;13496;51.040;13.680;2024-01-27T12:45:33;101479.28;;;17.03;44.72
25638;BME280;13496;51.040;13.680;2024-01-27T12:50:36;101478.56;;;17.01;43.40
25638;BME280;13496;51.040;13.680;2024-01-27T12:55:38;101476.22;;;16.98;44.68
25638;BME280;13496;51.040;13.680;2024-01-27T13:00:40;101473.91;;;16.95;44.40
25638;BME280;13496;51.040;13.680;2024-01-27T13:05:42;101472.94;;;17.15;45.75
25638;BME280;13496;51.040;13.680;2024-01-27T13:10:43;101471.00;;;17.07;45.22
25638;BME280;13496;51.040;13.680;2024-01-27T13:15:45;101474.59;;;17.06;45.52
25638;BME280;13496;51.040;13.680;2024-01-27T13:20:47;101475.53;;;16.96;45.24
25638;BME280;13496;51.040;13.680;2024-01-27T13:25:49;101484.53;;;17.03;44.56
25638;BME280;13496;51.040;13.680;2024-01-27T13:30:51;101482.41;;;16.87;44.27
25638;BME280;13496;51.040;13.680;2024-01-27T13:35:53;101487.53;;;16.98;44.12
25638;BME280;13496;51.040;13.680;2024-01-27T13:40:55;101473.06;;;17.04;46.17
25638;BME280;13496;51.040;13.680;2024-01-27T13:45:57;101481.34;;;16.99;45.81
25638;BME280;13496;51.040;13.680;2024-01-27T13:50:59;101493.38;;;17.11;45.96
25638;BME280;13496;51.040;13.680;2024-01-27T13:56:01;101486.63;;;17.18;46.05
25638;BME280;13496;51.040;13.680;2024-01-27T14:01:03;101482.59;;;17.14;46.93
25638;BME280;13496;51.040;13.680;2024-01-27T14:06:06;101478.19;;;17.15;46.59
25638;BME280;13496;51.040;13.680;2024-01-27T14:11:07;101469.34;;;17.06;46.58
25638;BME280;13496;51.040;13.680;2024-01-27T14:16:09;101483.03;;;17.10;46.76
25638;BME280;13496;51.040;13.680;2024-01-27T14:21:11;101478.34;;;17.13;46.94
25638;BME280;13496;51.040;13.680;2024-01-27T14:26:13;101481.50;;;17.07;46.65
25638;BME280;13496;51.040;13.680;2024-01-27T14:31:18;101480.53;;;17.08;47.15
25638;BME280;13496;51.040;13.680;2024-01-27T14:36:20;101476.97;;;17.09;47.38
25638;BME280;13496;51.040;13.680;2024-01-27T14:41:24;101479.69;;;17.08;46.93
25638;BME280;13496;51.040;13.680;2024-01-27T14:46:26;101496.41;;;17.07;47.03
25638;BME280;13496;51.040;13.680;2024-01-27T14:51:28;101495.44;;;17.08;47.53
25638;BME280;13496;51.040;13.680;2024-01-27T14:56:30;101494.03;;;17.04;47.60
25638;BME280;13496;51.040;13.680;2024-01-27T15:01:33;101508.53;;;17.08;47.57
25638;BME280;13496;51.040;13.680;2024-01-27T15:06:35;101519.19;;;17.06;47.68
25638;BME280;13496;51.040;13.680;2024-01-27T15:11:36;101527.06;;;17.06;47.69
25638;BME280;13496;51.040;13.680;2024-01-27T15:16:38;101525.38;;;17.05;47.66
25638;BME280;13496;51.040;13.680;2024-01-27T15:21:40;101534.22;;;17.04;47.97
25638;BME280;13496;51.040;13.680;2024-01-27T15:26:42;101529.94;;;17.03;47.78
25638;BME280;13496;51.040;13.680;2024-01-27T15:31:44;101542.22;;;17.03;47.67
25638;BME280;13496;51.040;13.680;2024-01-27T15:36:46;101554.75;;;16.99;47.90
25638;BME280;13496;51.040;13.680;2024-01-27T15:41:48;101563.72;;;16.97;47.98
25638;BME280;13496;51.040;13.680;2024-01-27T15:46:50;101564.69;;;16.96;48.14
25638;BME280;13496;51.040;13.680;2024-01-27T15:51:52;101575.03;;;16.97;48.29
25638;BME280;13496;51.040;13.680;2024-01-27T15:56:54;101579.84;;;16.92;48.12
25638;BME280;13496;51.040;13.680;2024-01-27T16:01:56;101584.38;;;16.90;48.16
25638;BME280;13496;51.040;13.680;2024-01-27T16:06:57;101590.59;;;16.89;48.35
25638;BME280;13496;51.040;13.680;2024-01-27T16:11:59;101585.22;;;16.90;48.12
25638;BME280;13496;51.040;13.680;2024-01-27T16:17:01;101588.81;;;16.89;48.22
25638;BME280;13496;51.040;13.680;2024-01-27T16:22:03;101601.22;;;16.87;48.29
25638;BME280;13496;51.040;13.680;2024-01-27T16:27:05;101590.75;;;16.87;48.36
25638;BME280;13496;51.040;13.680;2024-01-27T16:32:07;101604.78;;;16.86;48.39
25638;BME280;13496;51.040;13.680;2024-01-27T16:37:09;101611.00;;;16.85;48.25
25638;BME280;13496;51.040;13.680;2024-01-27T16:42:11;101616.09;;;16.87;48.48
25638;BME280;13496;51.040;13.680;2024-01-27T16:47:14;101617.06;;;16.86;48.42
25638;BME280;13496;51.040;13.680;2024-01-27T16:52:18;101620.78;;;16.83;48.31
25638;BME280;13496;51.040;13.680;2024-01-27T16:57:20;101622.47;;;16.84;48.33
25638;BME280;13496;51.040;13.680;2024-01-27T17:02:22;101618.88;;;16.85;48.37
25638;BME280;13496;51.040;13.680;2024-01-27T17:07:24;101627.13;;;16.81;48.69
25638;BME280;13496;51.040;13.680;2024-01-27T17:12:26;101625.19;;;16.83;48.51
25638;BME280;13496;51.040;13.680;2024-01-27T17:17:28;101635.81;;;16.81;48.39
25638;BME280;13496;51.040;13.680;2024-01-27T17:22:30;101634.03;;;16.82;48.53
25638;BME280;13496;51.040;13.680;2024-01-27T17:27:32;101643.69;;;16.81;48.49
25638;BME280;13496;51.040;13.680;2024-01-27T17:32:34;101649.19;;;16.78;48.38
25638;BME280;13496;51.040;13.680;2024-01-27T17:37:36;101642.28;;;16.77;48.66
25638;BME280;13496;51.040;13.680;2024-01-27T17:42:42;101643.94;;;16.78;48.50
25638;BME280;13496;51.040;13.680;2024-01-27T17:47:44;101652.06;;;16.75;48.70
25638;BME280;13496;51.040;13.680;2024-01-27T17:52:50;101654.44;;;16.78;48.64
25638;BME280;13496;51.040;13.680;2024-01-27T17:57:52;101663.25;;;16.77;48.58
25638;BME280;13496;51.040;13.680;2024-01-27T18:02:54;101666.84;;;16.76;48.56
25638;BME280;13496;51.040;13.680;2024-01-27T18:07:55;101672.09;;;16.76;48.55
25638;BME280;13496;51.040;13.680;2024-01-27T18:12:57;101674.09;;;16.73;48.78
25638;BME280;13496;51.040;13.680;2024-01-27T18:17:59;101671.47;;;16.73;49.00
25638;BME280;13496;51.040;13.680;2024-01-27T18:23:01;101669.69;;;16.73;48.75
25638;BME280;13496;51.040;13.680;2024-01-27T18:28:03;101674.22;;;16.71;48.69
25638;BME280;13496;51.040;13.680;2024-01-27T18:33:05;101676.72;;;16.73;48.81
25638;BME280;13496;51.040;13.680;2024-01-27T18:38:07;101674.22;;;16.71;48.87
25638;BME280;13496;51.040;13.680;2024-01-27T18:43:09;101681.22;;;16.82;48.82
25638;BME280;13496;51.040;13.680;2024-01-27T18:48:11;101695.78;;;16.96;48.88
25638;BME280;13496;51.040;13.680;2024-01-27T18:53:12;101692.91;;;16.99;48.70
25638;BME280;13496;51.040;13.680;2024-01-27T18:58:14;101699.09;;;16.98;48.58
25638;BME280;13496;51.040;13.680;2024-01-27T19:03:17;101690.22;;;17.10;48.69
25638;BME280;13496;51.040;13.680;2024-01-27T19:08:19;101694.22;;;17.14;48.92
25638;BME280;13496;51.040;13.680;2024-01-27T19:13:21;101692.03;;;17.19;48.56
25638;BME280;13496;51.040;13.680;2024-01-27T19:18:23;101685.72;;;17.22;48.38
25638;BME280;13496;51.040;13.680;2024-01-27T19:23:25;101674.09;;;17.24;48.69
25638;BME280;13496;51.040;13.680;2024-01-27T19:28:27;101684.34;;;17.27;48.38
25638;BME280;13496;51.040;13.680;2024-01-27T19:33:28;101693.19;;;17.26;48.79
25638;BME280;13496;51.040;13.680;2024-01-27T19:38:30;101705.47;;;17.26;48.81
25638;BME280;13496;51.040;13.680;2024-01-27T19:43:32;101716.00;;;17.35;48.44
25638;BME280;13496;51.040;13.680;2024-01-27T19:48:34;101734.38;;;17.35;48.67
25638;BME280;13496;51.040;13.680;2024-01-27T19:53:36;101743.72;;;17.28;49.11
25638;BME280;13496;51.040;13.680;2024-01-27T19:58:37;101743.41;;;17.22;49.04
25638;BME280;13496;51.040;13.680;2024-01-27T20:03:39;101745.88;;;17.13;48.92
25638;BME280;13496;51.040;13.680;2024-01-27T20:08:42;101749.31;;;17.14;49.16
25638;BME280;13496;51.040;13.680;2024-01-27T20:13:43;101751.22;;;17.12;48.93
25638;BME280;13496;51.040;13.680;2024-01-27T20:18:45;101756.72;;;17.09;48.94
25638;BME280;13496;51.040;13.680;2024-01-27T20:23:47;101759.34;;;17.09;49.26
25638;BME280;13496;51.040;13.680;2024-01-27T20:28:50;101746.22;;;17.09;48.86
25638;BME280;13496;51.040;13.680;2024-01-27T20:33:51;101751.03;;;17.04;49.13
25638;BME280;13496;51.040;13.680;2024-01-27T20:38:54;101748.41;;;17.04;49.12
25638;BME280;13496;51.040;13.680;2024-01-27T20:43:56;101755.56;;;17.02;49.19
25638;BME280;13496;51.040;13.680;2024-01-27T20:48:58;101754.63;;;17.03;49.02
25638;BME280;13496;51.040;13.680;2024-01-27T20:53:59;101754.75;;;17.01;49.24
25638;BME280;13496;51.040;13.680;2024-01-27T20:59:02;101761.09;;;16.99;49.13
25638;BME280;13496;51.040;13.680;2024-01-27T21:04:09;101761.91;;;16.99;49.07
25638;BME280;13496;51.040;13.680;2024-01-27T21:09:11;101769.22;;;16.96;49.16
25638;BME280;13496;51.040;13.680;2024-01-27T21:14:13;101761.44;;;16.94;49.24
25638;BME280;13496;51.040;13.680;2024-01-27T21:19:15;101766.69;;;16.94;49.09
25638;BME280;13496;51.040;13.680;2024-01-27T21:24:16;101769.47;;;16.92;49.06
25638;BME280;13496;51.040;13.680;2024-01-27T21:29:18;101770.53;;;16.90;49.36
25638;BME280;13496;51.040;13.680;2024-01-27T21:34:20;101767.09;;;16.89;49.09
25638;BME280;13496;51.040;13.680;2024-01-27T21:39:22;101763.50;;;16.90;49.30
25638;BME280;13496;51.040;13.680;2024-01-27T21:44:27;101761.25;;;16.86;49.33
25638;BME280;13496;51.040;13.680;2024-01-27T21:49:29;101769.13;;;16.86;49.17
25638;BME280;13496;51.040;13.680;2024-01-27T21:54:31;101763.88;;;16.86;49.15
25638;BME280;13496;51.040;13.680;2024-01-27T21:59:33;101760.44;;;16.85;49.10
25638;BME280;13496;51.040;13.680;2024-01-27T22:04:35;101758.06;;;16.82;49.12
25638;BME280;13496;51.040;13.680;2024-01-27T22:09:37;101769.28;;;16.84;49.37
25638;BME280;13496;51.040;13.680;2024-01-27T22:14:40;101778.06;;;16.83;49.23
25638;BME280;13496;51.040;13.680;2024-01-27T22:19:42;101778.06;;;16.83;49.41
25638;BME280;13496;51.040;13.680;2024-01-27T22:24:44;101771.16;;;16.82;49.28
25638;BME280;13496;51.040;13.680;2024-01-27T22:29:46;101764.97;;;16.83;49.28
25638;BME280;13496;51.040;13.680;2024-01-27T22:34:48;101778.34;;;16.80;49.23
25638;BME280;13496;51.040;13.680;2024-01-27T22:39:50;101765.09;;;16.82;49.13
25638;BME280;13496;51.040;13.680;2024-01-27T22:44:52;101768.78;;;16.79;49.22
25638;BME280;13496;51.040;13.680;2024-01-27T22:49:53;101776.94;;;16.76;49.46
25638;BME280;13496;51.040;13.680;2024-01-27T22:54:55;101762.88;;;16.77;49.32
25638;BME280;13496;51.040;13.680;2024-01-27T22:59:57;101757.63;;;16.77;49.41
25638;BME280;13496;51.040;13.680;2024-01-27T23:04:59;101758.59;;;16.76;49.45
25638;BME280;13496;51.040;13.680;2024-01-27T23:10:01;101752.38;;;16.77;49.42
25638;BME280;13496;51.040;13.680;2024-01-27T23:15:03;101755.97;;;16.76;49.55
25638;BME280;13496;51.040;13.680;2024-01-27T23:20:10;101736.75;;;16.76;49.52
25638;BME280;13496;51.040;13.680;2024-01-27T23:25:12;101738.69;;;16.74;49.49
25638;BME280;13496;51.040;13.680;2024-01-27T23:30:14;101740.72;;;16.70;49.45
25638;BME280;13496;51.040;13.680;2024-01-27T23:35:15;101742.25;;;16.73;49.56
25638;BME280;13496;51.040;13.680;2024-01-27T23:40:17;101733.53;;;16.72;49.51
25638;BME280;13496;51.040;13.680;2024-01-27T23:45:19;101730.91;;;16.72;49.38
25638;BME280;13496;51.040;13.680;2024-01-27T23:50:22;101739.06;;;16.69;49.54
25638;BME280;13496;51.040;13.680;2024-01-27T23:55:24;101740.72;;;16.70;49.50
